Архив погоды в Любани

Метеограмма Любань
Среда, 26 Сентября
Время местн. Темп Ветер Видим Явления Облачность нижн/средн/верх Атм. давл. Влжн Точка росы ВНГО R Сост. почвы Tg s
Напр Скр Прв ур.ст ур.м изм
03:00 - +2.3° Ю,Ю-З 1 - - - - 760 763 -0.3 88% +0.5° - - - - -
00:00 - +1.2° Ю 1 - - - - 760 764 +0.5 86% -0.9° - - - - -
Вторник, 25 Сентября
Время местн. Темп Ветер Видим Явления Облачность нижн/средн/верх Атм. давл. Влжн Точка росы ВНГО R Сост. почвы Tg s
Напр Скр Прв ур.ст ур.м изм
21:00 +3.6° З 1 - 10 км - ясно 760 763 +2 76% -0.3° более 2.5 км 0 - - -
18:00 - +8.5° З,С-З 2 - - - - 758 761 +1.7 54% -0.3° - - - - -
15:00 - +9.8° С 3 - - - - 756 760 +1.5 55% +1.2° - - - - -
12:00 - +7.4° С-З 3 - - - - 755 758 +2 76% +3.5° - - - - -
09:00 +5.1° С-З 3 - 10 км - переменная облачность 753 756 +1.4 90% +3.6° 1 км 0 Влажная (без луж) - -
06:00 - +2.8° С 1 - - - - 751 755 +1.1 96% +2.2° - - - - -
03:00 - +3.5° С,С-З 1 - - - - 750 754 +0.5 97% +3.1° - - - - -
00:00 - +3.5° штиль 0 - - - - 750 753 +0.1 98% +3.2° - - - - -
Понедельник, 24 Сентября
Время местн. Темп Ветер Видим Явления Облачность нижн/средн/верх Атм. давл. Влжн Точка росы ВНГО R Сост. почвы Tg s
Напр Скр Прв ур.ст ур.м изм
21:00 +5.6° штиль 0 - 2 км - облачно с прояснениями 749 753 +0.2 97% +5.2° - 0.1 - - -
18:00 - +9.7° штиль 0 - - - - 749 753 0 88% +7.8° - - - - -
12:00 - +8.3° Ю 2 - - - - 749 752 0 93% +7.2° - - - - -
09:00 +6.8° Ю 2 - 2 км - облачно 749 752 +0.6 97% +6.4° 200 м 0 - - -
06:00 - +6.8° Ю 2 - - - - 748 752 +0.1 95% +6.1° - - - - -
03:00 - +6.3° Ю 1 - - - - 748 752 -0.2 96% +5.7° - - - - -
00:00 - +7.1° Ю 2 - - - - 748 752 +0.3 95% +6.4° - - - - -
Воскресенье, 23 Сентября
Время местн. Темп Ветер Видим Явления Облачность нижн/средн/верх Атм. давл. Влжн Точка росы ВНГО R Сост. почвы Tg s
Напр Скр Прв ур.ст ур.м изм
21:00 +7.8° Ю 2 - 4 км - преимущественно облачно 748 752 -0.2 95% +7° - 3 - - -
18:00 - +9.7° Ю 2 - - - - 748 752 -0.3 92% +8.5° - - - - -
15:00 - +9.9° З 3 - - - - 748 752 +0.3 81% +6.8° - - - - -
12:00 - +10.5° Ю,Ю-З 3 - - - - 748 752 -0.3 82% +7.6° - - - - -
09:00 +9° Ю,Ю-З 3 - 10 км - облачно 748 752 -0.6 91% +7.6° 600 м 0 Влажная (без луж) - -
06:00 - +8.8° Ю,Ю-З 2 - - - - 749 753 -0.7 94% +7.9° - - - - -
03:00 - +10.2° Ю 2 - - - - 750 753 -0.6 92% +9° - - - - -
00:00 - +11.1° Ю 2 - - - - 750 754 -0.7 90% +9.5° - - - - -
Суббота, 22 Сентября
Время местн. Темп Ветер Видим Явления Облачность нижн/средн/верх Атм. давл. Влжн Точка росы ВНГО R Сост. почвы Tg s
Напр Скр Прв ур.ст ур.м изм
21:00 +11.7° Ю 3 - 10 км - облачно 751 755 +0.1 88% +9.8° 600 м 0.1 - - -